Time;durP1;ratioP1;P1;durP2;ratioP2;P2;SDS_P1;SDS_P2;PMS_P1;PMS_P2;Temp;Humidity;BMP_temperature;BMP_pressure;BME280_temperature;BME280_humidity;BME280_pressure;Samples;Min_cycle;Max_cycle;Signal;HPM_P1;HPM_P2
2022/05/22 00:02:03;;;;;;;3.83;0.50;;;15.40;81.50;;;;;;5139600;27;20023;-90
2022/05/22 00:04:29;;;;;;;3.40;0.85;;;15.40;82.10;;;;;;5140044;27;20023;-90
2022/05/22 00:06:56;;;;;;;1.35;0.45;;;15.30;83.00;;;;;;5139768;27;20201;-92
2022/05/22 00:09:22;;;;;;;3.08;0.63;;;15.30;83.90;;;;;;5139277;27;20031;-88
2022/05/22 00:11:47;;;;;;;;;;;15.20;83.70;;;;;;5138880;27;20025;-88
2022/05/22 00:14:13;;;;;;;4.07;0.50;;;15.20;84.60;;;;;;5138829;27;20363;-88
2022/05/22 00:16:42;;;;;;;;;;;15.20;84.90;;;;;;5139685;27;20031;-90
2022/05/22 00:19:11;;;;;;;2.70;0.60;;;15.10;86.90;;;;;;5139464;27;19918;-90
2022/05/22 00:21:37;;;;;;;21.67;0.90;;;15.00;87.10;;;;;;5139420;27;20026;-90
2022/05/22 00:24:03;;;;;;;1.38;0.50;;;15.00;88.00;;;;;;5139170;27;20031;-87
2022/05/22 00:26:29;;;;;;;15.60;1.10;;;14.90;88.70;;;;;;5136710;27;20115;-86
2022/05/22 00:28:55;;;;;;;;;;;14.90;89.80;;;;;;5138811;27;20054;-88
2022/05/22 00:31:20;;;;;;;1.85;0.60;;;14.80;90.70;;;;;;5138764;27;20295;-88
2022/05/22 00:33:46;;;;;;;2.05;0.60;;;14.70;91.10;;;;;;5139001;27;20034;-88
2022/05/22 00:36:12;;;;;;;3.03;0.75;;;14.60;91.30;;;;;;5138840;27;20031;-88
2022/05/22 00:38:38;;;;;;;1.75;0.50;;;14.60;91.70;;;;;;5139120;27;20080;-88
2022/05/22 00:41:04;;;;;;;;;;;14.60;92.00;;;;;;5150122;27;20023;-86
2022/05/22 00:43:36;;;;;;;1.42;0.60;;;14.50;92.50;;;;;;5144897;27;19903;-86
2022/05/22 00:46:05;;;;;;;4.32;0.68;;;14.40;92.70;;;;;;5138399;27;20126;-86
2022/05/22 00:48:32;;;;;;;3.83;1.30;;;14.40;92.60;;;;;;5138332;27;20382;-89
2022/05/22 00:51:03;;;;;;;3.90;0.50;;;14.40;92.60;;;;;;5138675;27;20463;-86
2022/05/22 00:53:32;;;;;;;0.68;0.50;;;14.40;92.90;;;;;;5156321;27;20075;-84
2022/05/22 00:56:00;;;;;;;2.35;0.80;;;14.40;93.00;;;;;;5137765;27;20509;-86
2022/05/22 00:58:29;;;;;;;1.30;0.50;;;14.30;93.30;;;;;;5137765;27;20071;-85
2022/05/22 01:00:55;;;;;;;1.48;0.60;;;14.40;93.40;;;;;;5138346;27;20046;-87
2022/05/22 01:03:28;;;;;;;;;;;14.30;93.30;;;;;;5157193;27;20039;-87
2022/05/22 01:06:01;;;;;;;6.70;0.60;;;14.30;93.40;;;;;;5138140;27;20001;-87
2022/05/22 01:08:26;;;;;;;2.55;0.70;;;14.40;93.70;;;;;;5138169;27;20022;-87
2022/05/22 01:10:54;;;;;;;;;;;14.30;94.00;;;;;;5138584;27;20030;-88
2022/05/22 01:13:25;;;;;;;5.45;1.00;;;14.20;94.40;;;;;;5138123;27;19910;-88
2022/05/22 01:15:51;;;;;;;2.45;0.70;;;14.20;94.70;;;;;;5138121;27;20029;-89
2022/05/22 01:18:17;;;;;;;;;;;14.10;94.90;;;;;;5138551;27;20027;-88
2022/05/22 01:20:48;;;;;;;2.80;0.70;;;14.10;95.00;;;;;;5137966;27;19903;-88
2022/05/22 01:23:14;;;;;;;2.30;0.60;;;14.10;94.60;;;;;;5137749;27;20483;-87
2022/05/22 01:25:40;;;;;;;4.82;0.68;;;14.10;94.50;;;;;;5138008;27;20042;-88
2022/05/22 01:28:06;;;;;;;;;;;14.20;94.20;;;;;;5155816;27;20492;-88
2022/05/22 01:30:32;;;;;;;2.05;0.60;;;14.20;94.10;;;;;;5137890;27;19910;-88
2022/05/22 01:32:57;;;;;;;;;;;14.30;94.00;;;;;;5138321;27;20019;-87
2022/05/22 01:35:26;;;;;;;7.00;0.70;;;14.30;94.00;;;;;;5137756;27;19907;-88
2022/05/22 01:37:52;;;;;;;3.05;0.60;;;14.30;94.10;;;;;;5137505;27;20483;-87
2022/05/22 01:40:19;;;;;;;3.45;0.55;;;14.30;94.10;;;;;;5137573;27;20491;-87
2022/05/22 01:42:45;;;;;;;1.55;0.50;;;14.30;94.20;;;;;;5137318;27;20741;-86
2022/05/22 01:45:12;;;;;;;;;;;14.30;94.20;;;;;;5155826;27;20030;-88
2022/05/22 01:47:38;;;;;;;;;;;14.30;94.50;;;;;;5157553;27;19903;-90
2022/05/22 01:50:06;;;;;;;3.58;0.50;;;14.30;94.60;;;;;;5134893;27;20001;-89
2022/05/22 01:52:32;;;;;;;2.95;0.60;;;14.20;94.30;;;;;;5137382;27;20019;-89
2022/05/22 01:54:57;;;;;;;;;;;14.30;94.40;;;;;;5137889;27;20019;-91
2022/05/22 01:57:23;;;;;;;1.80;0.60;;;14.20;94.60;;;;;;5137113;27;19907;-86
2022/05/22 01:59:49;;;;;;;6.00;0.60;;;14.20;94.60;;;;;;5135695;27;20038;-85
2022/05/22 02:02:15;;;;;;;;;;;14.20;94.90;;;;;;5136989;27;20076;-85
2022/05/22 02:04:40;;;;;;;1.77;0.85;;;14.10;95.20;;;;;;5136310;27;20496;-85
2022/05/22 02:09:50;;;;;;;6.28;0.73;;;14.10;95.00;;;;;;5154383;27;20275;-85
2022/05/22 02:12:16;;;;;;;;;;;14.10;94.60;;;;;;5154557;27;20027;-85
2022/05/22 02:14:41;;;;;;;3.67;0.50;;;14.10;94.50;;;;;;5135686;27;19918;-85
2022/05/22 02:17:07;;;;;;;;;;;14.20;93.90;;;;;;5136238;27;20471;-85
2022/05/22 02:19:33;;;;;;;0.73;0.30;;;14.20;93.90;;;;;;5135781;27;19911;-84
2022/05/22 02:21:58;;;;;;;;;;;14.20;93.80;;;;;;5136253;27;20019;-85
2022/05/22 02:24:24;;;;;;;2.72;0.57;;;14.20;93.90;;;;;;5136072;27;19903;-85
2022/05/22 02:26:49;;;;;;;;;;;14.20;93.90;;;;;;5136229;27;20051;-81
2022/05/22 02:29:16;;;;;;;3.20;0.77;;;14.20;94.40;;;;;;5154018;27;20347;-84
2022/05/22 02:31:41;;;;;;;1.30;0.60;;;14.10;94.60;;;;;;5134664;27;20019;-84
2022/05/22 02:34:07;;;;;;;;;;;14.00;95.00;;;;;;5134876;27;20071;-83
2022/05/22 02:36:33;;;;;;;7.50;0.70;;;14.00;95.30;;;;;;5135578;27;19903;-85
2022/05/22 02:38:58;;;;;;;;;;;13.90;95.30;;;;;;5136566;27;20421;-86
2022/05/22 02:41:25;;;;;;;2.10;0.50;;;13.90;95.30;;;;;;5135985;27;20319;-85
2022/05/22 02:43:52;;;;;;;2.78;0.50;;;13.90;95.20;;;;;;5154304;27;20019;-88
2022/05/22 02:46:18;;;;;;;1.92;0.60;;;13.90;94.80;;;;;;5136337;27;20026;-89
2022/05/22 02:48:44;;;;;;;1.48;0.65;;;13.90;94.80;;;;;;5136692;27;20029;-89
2022/05/22 02:51:11;;;;;;;;;;;13.90;95.10;;;;;;5136926;27;20109;-89
2022/05/22 02:53:36;;;;;;;2.73;0.50;;;13.90;95.40;;;;;;5136919;27;19959;-86
2022/05/22 02:56:06;;;;;;;;;;;13.90;95.40;;;;;;5136861;27;20267;-87
2022/05/22 02:58:31;;;;;;;1.63;0.57;;;13.90;95.40;;;;;;5136336;27;19918;-87
2022/05/22 03:00:57;;;;;;;;;;;13.90;95.30;;;;;;5136467;27;20022;-88
2022/05/22 03:03:22;;;;;;;2.25;0.57;;;13.90;95.40;;;;;;5136474;27;19907;-88
2022/05/22 03:08:33;;;;;;;1.50;0.60;;;13.90;94.90;;;;;;5154230;27;20017;-86
2022/05/22 03:11:03;;;;;;;8.40;0.68;;;14.00;94.70;;;;;;5136344;27;20019;-86
2022/05/22 03:13:29;;;;;;;1.95;0.77;;;14.00;94.50;;;;;;5136219;27;20034;-86
2022/05/22 03:15:54;;;;;;;;;;;14.00;94.50;;;;;;5136401;27;20023;-86
2022/05/22 03:18:20;;;;;;;1.90;0.50;;;14.10;94.60;;;;;;5135714;27;19914;-86
2022/05/22 03:20:46;;;;;;;;;;;14.10;94.20;;;;;;5136201;27;20035;-86
2022/05/22 03:23:12;;;;;;;2.73;0.63;;;14.20;93.80;;;;;;5135558;27;19906;-85
2022/05/22 03:25:39;;;;;;;1.45;0.68;;;14.20;93.90;;;;;;5135725;27;20015;-85
2022/05/22 03:28:05;;;;;;;2.45;0.50;;;14.30;93.20;;;;;;5135806;27;20046;-85
2022/05/22 03:30:31;;;;;;;9.55;0.60;;;14.30;93.10;;;;;;5134874;27;20023;-85
2022/05/22 03:32:57;;;;;;;;;;;14.30;92.80;;;;;;5135904;27;20041;-84
2022/05/22 03:35:22;;;;;;;1.88;0.60;;;14.40;92.90;;;;;;5135814;27;19903;-86
2022/05/22 03:37:48;;;;;;;1.70;0.40;;;14.40;92.60;;;;;;5135323;27;20491;-85
2022/05/22 03:40:14;;;;;;;;;;;14.40;92.40;;;;;;5138762;27;20041;-86
2022/05/22 03:42:40;;;;;;;2.25;0.40;;;14.50;92.30;;;;;;5135206;27;19907;-86
2022/05/22 03:45:06;;;;;;;;;;;14.50;92.00;;;;;;5135935;27;20030;-86
2022/05/22 03:47:32;;;;;;;1.80;0.70;;;14.60;91.80;;;;;;5136303;27;20330;-85
2022/05/22 03:49:57;;;;;;;;;;;14.70;91.80;;;;;;5139768;27;20061;-86
2022/05/22 03:52:23;;;;;;;1.15;0.40;;;14.70;91.30;;;;;;5141314;27;19934;-85
2022/05/22 03:54:48;;;;;;;;;;;14.80;91.50;;;;;;5160745;27;20034;-85
2022/05/22 03:57:14;;;;;;;1.08;0.40;;;14.90;91.20;;;;;;5138660;27;19911;-86
2022/05/22 03:59:41;;;;;;;;;;;15.00;90.70;;;;;;5138610;27;20031;-86
2022/05/22 04:02:06;;;;;;;2.77;0.50;;;15.10;90.10;;;;;;5157880;27;19926;-87
2022/05/22 04:04:33;;;;;;;;;;;15.20;90.50;;;;;;5139692;27;20759;-87
2022/05/22 04:06:59;;;;;;;1.87;0.50;;;15.30;89.70;;;;;;5139134;27;19903;-88
2022/05/22 04:09:26;;;;;;;;;;;15.50;88.90;;;;;;5139353;27;20074;-87
2022/05/22 04:11:52;;;;;;;2.80;0.63;;;15.60;87.40;;;;;;5138756;27;19993;-89
2022/05/22 04:14:18;;;;;;;;;;;15.80;86.30;;;;;;5140447;27;20497;-91
2022/05/22 04:16:43;;;;;;;2.13;0.43;;;15.90;85.30;;;;;;5139912;27;19953;-91
2022/05/22 04:19:09;;;;;;;;;;;16.00;84.00;;;;;;5140759;27;20134;-89
2022/05/22 04:21:35;;;;;;;1.75;0.60;;;16.20;83.30;;;;;;5141836;27;19903;-90
2022/05/22 04:26:56;;;;;;;2.30;0.65;;;16.10;82.40;;;;;;5102080;27;20032;-91
2022/05/22 04:29:21;;;;;;;;;;;16.00;83.50;;;;;;5139422;27;20046;-89
2022/05/22 04:31:47;;;;;;;6.50;0.90;;;15.90;83.90;;;;;;5156905;27;19903;-90
2022/05/22 04:34:12;;;;;;;3.50;0.65;;;15.90;85.00;;;;;;5138203;27;20175;-91
2022/05/22 04:36:38;;;;;;;;;;;15.80;85.40;;;;;;5138812;27;20070;-90
2022/05/22 04:39:04;;;;;;;2.60;1.00;;;15.80;86.70;;;;;;5136366;27;19922;-90
2022/05/22 04:41:30;;;;;;;2.05;0.60;;;15.70;86.30;;;;;;5156659;27;20119;-89
2022/05/22 04:43:55;;;;;;;;;;;15.60;86.10;;;;;;5139199;27;20811;-89
2022/05/22 04:46:21;;;;;;;3.35;0.50;;;15.60;87.00;;;;;;5138792;27;19926;-89
2022/05/22 04:48:46;;;;;;;;;;;15.50;88.40;;;;;;5139471;27;20407;-89
2022/05/22 04:51:13;;;;;;;6.30;0.80;;;15.50;90.00;;;;;;5138837;27;19939;-87
2022/05/22 04:53:38;;;;;;;1.17;0.50;;;15.40;89.60;;;;;;5138594;27;20054;-89
2022/05/22 04:56:05;;;;;;;;;;;15.50;89.10;;;;;;5138912;27;20498;-89
2022/05/22 04:58:31;;;;;;;1.97;0.60;;;15.60;89.70;;;;;;5137295;27;20398;-89
2022/05/22 05:00:56;;;;;;;;;;;15.60;88.90;;;;;;5138950;27;20026;-89
2022/05/22 05:03:22;;;;;;;1.40;0.55;;;15.60;88.60;;;;;;5138275;27;19914;-89
2022/05/22 05:05:57;;;;;;;4.47;0.50;;;15.70;90.80;;;;;;5138450;27;20039;-90
2022/05/22 05:08:23;;;;;;;4.00;0.77;;;15.70;91.00;;;;;;5138302;27;20053;-90
2022/05/22 05:10:51;;;;;;;7.57;0.80;;;15.70;91.50;;;;;;5138330;27;20470;-90
2022/05/22 05:13:18;;;;;;;4.97;0.50;;;15.60;91.80;;;;;;5138475;27;20034;-90
2022/05/22 05:15:44;;;;;;;8.32;0.90;;;15.70;91.10;;;;;;5138083;27;20027;-90
2022/05/22 05:18:09;;;;;;;;;;;15.90;90.90;;;;;;5138203;27;20030;-90
2022/05/22 05:20:37;;;;;;;3.75;1.08;;;16.10;91.20;;;;;;5137657;27;20548;-90
2022/05/22 05:23:06;;;;;;;5.07;0.73;;;16.30;89.50;;;;;;5137784;27;20022;-89
2022/05/22 05:25:32;;;;;;;3.97;0.50;;;16.70;87.70;;;;;;5137969;27;20127;-89
2022/05/22 05:27:57;;;;;;;7.47;0.70;;;17.10;82.60;;;;;;5137518;27;20491;-90
2022/05/22 05:30:23;;;;;;;6.80;0.82;;;17.30;79.80;;;;;;5137583;27;20023;-89
2022/05/22 05:32:55;;;;;;;3.50;0.57;;;17.60;78.00;;;;;;5138347;27;20030;-89
2022/05/22 05:35:20;;;;;;;4.28;0.55;;;17.90;76.50;;;;;;5136691;27;20100;-90
2022/05/22 05:37:46;;;;;;;2.55;0.60;;;18.10;73.90;;;;;;5137825;27;20034;-90
2022/05/22 05:40:12;;;;;;;1.20;0.43;;;18.30;71.50;;;;;;5137776;27;20041;-90
2022/05/22 05:42:40;;;;;;;2.45;0.57;;;18.40;70.40;;;;;;5137009;27;20079;-90
2022/05/22 05:45:08;;;;;;;6.60;0.73;;;18.60;69.30;;;;;;5137492;27;20022;-91
2022/05/22 05:47:34;;;;;;;4.45;0.73;;;18.70;68.00;;;;;;5137776;27;20023;-90
2022/05/22 05:50:00;;;;;;;4.88;0.52;;;19.00;66.50;;;;;;5137239;27;20087;-92
2022/05/22 05:52:25;;;;;;;2.50;0.70;;;19.20;64.70;;;;;;5137301;27;20174;-89
2022/05/22 05:54:51;;;;;;;2.88;0.50;;;19.40;64.40;;;;;;5137646;27;20019;-90
2022/05/22 05:57:17;;;;;;;1.85;0.50;;;19.70;62.90;;;;;;5137599;27;20026;-91
2022/05/22 05:59:43;;;;;;;2.70;0.82;;;20.00;63.00;;;;;;5155329;27;20062;-90
2022/05/22 06:02:15;;;;;;;1.65;0.55;;;20.20;60.90;;;;;;5137410;27;20027;-89
2022/05/22 06:04:41;;;;;;;5.22;0.60;;;20.30;60.30;;;;;;5137172;27;20546;-88
2022/05/22 06:07:07;;;;;;;15.93;1.27;;;20.50;58.50;;;;;;5137236;27;20027;-90
2022/05/22 06:09:34;;;;;;;13.45;0.90;;;20.60;58.00;;;;;;5136529;27;20023;-90
2022/05/22 06:12:00;;;;;;;8.60;0.80;;;20.70;57.70;;;;;;5136740;27;20051;-89
2022/05/22 06:14:26;;;;;;;2.45;0.75;;;20.90;57.20;;;;;;5136792;27;20023;-90
2022/05/22 06:16:51;;;;;;;3.70;0.70;;;21.10;55.80;;;;;;5137170;27;20113;-90
2022/05/22 06:19:53;;;;;;;8.60;0.70;;;21.50;54.10;;;;;;5136933;27;20026;-91
2022/05/22 06:22:03;;;;;;;1.80;0.80;;;21.90;52.00;;;;;;5154628;27;20023;-90
2022/05/22 06:24:29;;;;;;;3.03;1.40;;;22.30;51.20;;;;;;5136099;27;20023;-90
2022/05/22 06:26:54;;;;;;;3.08;1.10;;;22.60;50.80;;;;;;5136338;27;20537;-91
2022/05/22 06:29:20;;;;;;;4.85;0.75;;;22.80;50.10;;;;;;5136961;27;20030;-90
2022/05/22 06:31:47;;;;;;;3.85;0.70;;;22.80;47.80;;;;;;5136655;27;20046;-90
2022/05/22 06:34:12;;;;;;;4.80;0.90;;;23.00;47.30;;;;;;5136587;27;20575;-90
2022/05/22 06:36:38;;;;;;;3.67;0.50;;;22.90;47.00;;;;;;5136622;27;20415;-88
2022/05/22 06:41:48;;;;;;;6.50;0.75;;;23.00;45.90;;;;;;5155668;27;20072;-91
2022/05/22 06:44:13;;;;;;;2.13;0.70;;;23.20;45.30;;;;;;5135022;27;20027;-90
2022/05/22 06:46:39;;;;;;;8.38;0.88;;;23.70;44.10;;;;;;5135573;27;20037;-89
2022/05/22 06:49:05;;;;;;;2.42;0.65;;;24.70;42.80;;;;;;5154770;27;20041;-91
2022/05/22 06:51:30;;;;;;;6.72;1.33;;;25.50;41.30;;;;;;5136839;27;20030;-92
2022/05/22 06:53:56;;;;;;;2.13;0.80;;;26.10;39.90;;;;;;5137509;27;20034;-89
2022/05/22 06:56:22;;;;;;;2.85;0.77;;;26.80;39.10;;;;;;5137654;27;20050;-87
2022/05/22 06:58:48;;;;;;;1.98;0.70;;;27.60;36.00;;;;;;5138658;27;20023;-89
2022/05/22 07:01:15;;;;;;;1.88;0.60;;;28.40;35.00;;;;;;5142129;27;20055;-90
2022/05/22 07:03:41;;;;;;;4.13;0.93;;;29.20;33.10;;;;;;5156533;27;20015;-89
2022/05/22 07:06:06;;;;;;;3.22;0.90;;;29.70;31.60;;;;;;5151921;27;20026;-88
2022/05/22 07:08:32;;;;;;;1.35;0.60;;;29.90;30.90;;;;;;5138537;27;20029;-87
2022/05/22 07:13:42;;;;;;;1.90;0.60;;;30.20;28.40;;;;;;5155081;27;20057;-90
2022/05/22 07:16:07;;;;;;;3.90;0.77;;;30.20;28.40;;;;;;5136314;27;20054;-87
2022/05/22 07:18:33;;;;;;;3.25;0.63;;;30.40;28.10;;;;;;5135833;27;20063;-89
2022/05/22 07:20:59;;;;;;;4.63;0.73;;;30.40;28.20;;;;;;5136579;27;20019;-89
2022/05/22 07:23:25;;;;;;;4.57;0.75;;;30.60;27.50;;;;;;5141366;27;20021;-89
2022/05/22 07:25:53;;;;;;;2.28;0.80;;;30.80;27.50;;;;;;5141634;27;20545;-88
2022/05/22 07:28:20;;;;;;;2.72;1.00;;;31.00;27.20;;;;;;5138119;27;20054;-88
2022/05/22 07:30:46;;;;;;;2.20;0.70;;;31.10;27.20;;;;;;5139651;27;20068;-88
2022/05/22 07:33:11;;;;;;;2.53;0.60;;;31.20;27.40;;;;;;5140044;27;20019;-90
2022/05/22 07:35:38;;;;;;;3.30;0.80;;;31.20;27.40;;;;;;5140272;27;20050;-90
2022/05/22 07:38:04;;;;;;;1.17;0.52;;;30.80;27.80;;;;;;5139707;27;20021;-88
2022/05/22 07:40:31;;;;;;;2.85;0.80;;;30.90;26.80;;;;;;5158619;27;20034;-88
2022/05/22 07:42:57;;;;;;;5.75;0.63;;;30.90;26.20;;;;;;5139510;27;20019;-88
2022/05/22 07:45:24;;;;;;;4.70;1.10;;;30.50;25.80;;;;;;5157922;27;20041;-90
2022/05/22 07:47:52;;;;;;;2.35;0.70;;;30.50;26.00;;;;;;5140181;27;20053;-89
2022/05/22 07:50:21;;;;;;;4.85;0.70;;;30.80;26.10;;;;;;5139832;27;20038;-89
2022/05/22 07:52:49;;;;;;;1.45;0.50;;;30.90;25.40;;;;;;5157839;27;20090;-89
2022/05/22 07:55:15;;;;;;;3.05;0.57;;;30.90;25.50;;;;;;5139228;27;20030;-89
2022/05/22 07:57:43;;;;;;;1.92;0.70;;;30.30;26.10;;;;;;5139783;27;20052;-88
2022/05/22 08:00:10;;;;;;;2.90;0.90;;;29.70;26.50;;;;;;5139900;27;20066;-88
2022/05/22 08:02:36;;;;;;;3.42;0.60;;;29.40;26.90;;;;;;5139473;27;20064;-88
2022/05/22 08:05:06;;;;;;;2.42;0.75;;;28.80;27.00;;;;;;5138919;27;20030;-88
2022/05/22 08:07:33;;;;;;;3.55;0.70;;;28.40;26.80;;;;;;5138938;27;20023;-88
2022/05/22 08:09:59;;;;;;;5.05;0.50;;;27.90;27.70;;;;;;5138926;27;20023;-90
2022/05/22 08:12:25;;;;;;;3.50;0.60;;;27.70;27.90;;;;;;5138877;27;20071;-89
2022/05/22 08:14:53;;;;;;;3.58;1.08;;;27.60;28.10;;;;;;5138746;27;20466;-88
2022/05/22 08:17:21;;;;;;;3.17;0.65;;;27.40;28.50;;;;;;5138815;27;20023;-88
2022/05/22 08:19:48;;;;;;;3.67;0.65;;;27.40;28.90;;;;;;5139333;27;20058;-88
2022/05/22 08:22:15;;;;;;;4.85;0.60;;;27.30;28.90;;;;;;5138654;27;20402;-89
2022/05/22 08:24:41;;;;;;;1.77;0.50;;;27.30;28.80;;;;;;5138519;27;20033;-89
2022/05/22 08:27:06;;;;;;;9.40;0.93;;;27.00;28.50;;;;;;5137977;27;20034;-90
2022/05/22 08:29:32;;;;;;;5.53;0.65;;;26.90;28.60;;;;;;5138759;27;20034;-90
2022/05/22 08:31:58;;;;;;;1.95;0.52;;;27.00;29.60;;;;;;5138609;27;20029;-90
2022/05/22 08:34:24;;;;;;;3.40;0.60;;;27.60;29.30;;;;;;5137754;27;20031;-89
2022/05/22 08:36:51;;;;;;;1.70;0.60;;;28.20;28.70;;;;;;5138735;27;20380;-89
2022/05/22 08:39:18;;;;;;;2.92;0.95;;;28.90;28.30;;;;;;5138049;27;20031;-89
2022/05/22 08:41:48;;;;;;;2.03;0.68;;;29.60;26.90;;;;;;5138154;27;20116;-89
2022/05/22 08:44:31;;;;;;;1.33;0.50;;;30.20;25.50;;;;;;5137885;27;20023;-88
2022/05/22 08:47:03;;;;;;;0.90;0.40;;;30.40;25.30;;;;;;5156296;27;20023;-88
2022/05/22 08:49:58;;;;;;;3.22;0.73;;;30.50;25.20;;;;;;5138263;27;20030;-88
2022/05/22 08:52:47;;;;;;;2.72;0.80;;;30.60;24.90;;;;;;5134448;27;20553;-87
2022/05/22 08:55:20;;;;;;;7.07;0.90;;;30.50;25.80;;;;;;5137393;27;20034;-86
2022/05/22 09:00:49;;;;;;;1.88;0.55;;;30.40;25.60;;;;;;5156362;27;20066;-85
2022/05/22 09:03:24;;;;;;;4.10;1.00;;;30.20;25.60;;;;;;5138101;27;20050;-89
2022/05/22 09:05:55;;;;;;;2.40;0.88;;;30.10;25.50;;;;;;5138284;27;20026;-89
2022/05/22 09:08:29;;;;;;;1.98;0.70;;;30.50;24.80;;;;;;5137968;27;20491;-89
2022/05/22 09:10:57;;;;;;;3.70;1.05;;;30.50;25.40;;;;;;5137541;27;20075;-88
2022/05/22 09:13:42;;;;;;;1.83;0.60;;;30.40;25.00;;;;;;5137589;27;20023;-86
2022/05/22 09:16:21;;;;;;;6.60;1.42;;;30.20;24.90;;;;;;5137895;27;20113;-86
2022/05/22 09:18:56;;;;;;;2.95;0.65;;;29.80;25.60;;;;;;5136844;27;20071;-89
2022/05/22 09:21:38;;;;;;;3.20;0.93;;;29.70;25.30;;;;;;5139906;27;20069;-87
2022/05/22 09:24:12;;;;;;;4.35;0.80;;;29.50;26.30;;;;;;5136726;27;20118;-87
2022/05/22 09:26:44;;;;;;;5.72;1.27;;;29.70;26.00;;;;;;5155842;27;20062;-87
2022/05/22 09:29:30;;;;;;;7.28;1.00;;;30.10;26.30;;;;;;5137383;27;20068;-87
2022/05/22 09:32:09;;;;;;;4.07;0.70;;;29.90;26.10;;;;;;5137443;27;20094;-89
2022/05/22 09:34:38;;;;;;;2.88;0.93;;;29.50;26.30;;;;;;5137229;27;20034;-89
2022/05/22 09:37:26;;;;;;;5.47;0.90;;;29.60;26.50;;;;;;5155701;27;20098;-88
2022/05/22 09:39:58;;;;;;;2.65;0.90;;;29.90;26.40;;;;;;5136514;27;20035;-88
2022/05/22 09:42:51;;;;;;;3.17;0.90;;;30.30;26.70;;;;;;5155738;27;20135;-88
2022/05/22 09:46:13;;;;;;;8.48;1.08;;;30.10;26.10;;;;;;5135811;27;20034;-88
2022/05/22 09:48:52;;;;;;;5.57;0.93;;;30.30;26.10;;;;;;5035042;28;20021;-87
2022/05/22 09:51:38;;;;;;;4.13;1.70;;;29.80;26.00;;;;;;5034367;28;20453;-87
2022/05/22 09:54:38;;;;;;;3.67;1.00;;;29.40;26.60;;;;;;5128204;27;20038;-88
2022/05/22 09:57:54;;;;;;;4.50;1.05;;;29.40;26.70;;;;;;5137112;27;20031;-87
2022/05/22 10:00:28;;;;;;;3.83;1.05;;;29.10;27.40;;;;;;5035193;28;20040;-87
2022/05/22 10:03:15;;;;;;;3.58;0.77;;;29.30;27.50;;;;;;5124822;27;20031;-85
2022/05/22 10:06:22;;;;;;;8.52;1.17;;;29.70;27.40;;;;;;5137023;27;20123;-87
2022/05/22 10:09:06;;;;;;;4.03;0.80;;;29.00;27.50;;;;;;5032168;28;20038;-85
2022/05/22 10:11:54;;;;;;;2.25;0.88;;;28.90;27.50;;;;;;5118962;27;20056;-87
2022/05/22 10:14:42;;;;;;;2.30;0.55;;;28.70;28.10;;;;;;5132306;27;20031;-88
2022/05/22 10:17:41;;;;;;;6.55;0.77;;;28.30;28.20;;;;;;5113792;27;20031;-87
2022/05/22 10:20:26;;;;;;;8.63;1.17;;;28.00;28.70;;;;;;5134738;27;20033;-87
2022/05/22 10:23:11;;;;;;;1.27;0.65;;;27.90;29.40;;;;;;5113305;27;20034;-88
2022/05/22 10:25:42;;;;;;;4.93;0.63;;;27.70;29.10;;;;;;5109456;27;20099;-89
2022/05/22 10:28:15;;;;;;;2.85;0.90;;;27.40;29.30;;;;;;5110756;27;20521;-89
2022/05/22 10:30:45;;;;;;;3.65;0.70;;;27.00;29.10;;;;;;5111130;27;20030;-87
2022/05/22 10:33:27;;;;;;;2.30;0.98;;;26.90;29.60;;;;;;5115390;27;20058;-88
2022/05/22 10:36:13;;;;;;;2.40;0.90;;;26.90;29.40;;;;;;5117470;27;20035;-89
2022/05/22 10:38:54;;;;;;;;;;;26.70;29.90;;;;;;5128144;27;20115;-87
2022/05/22 10:44:15;;;;;;;3.67;0.70;;;26.10;29.90;;;;;;5126990;27;20040;-87
2022/05/22 10:46:50;;;;;;;1.52;0.60;;;25.90;30.80;;;;;;5108670;28;20027;-88
2022/05/22 10:49:17;;;;;;;2.65;1.27;;;25.70;30.80;;;;;;5117699;27;20038;-87
2022/05/22 10:51:58;;;;;;;2.92;0.82;;;25.60;31.80;;;;;;5104316;27;20067;-88
2022/05/22 10:54:36;;;;;;;1.88;0.60;;;25.50;32.20;;;;;;5092399;28;20031;-90
2022/05/22 10:57:23;;;;;;;3.17;0.75;;;25.50;31.90;;;;;;5116677;27;20049;-90
2022/05/22 10:59:50;;;;;;;2.45;0.60;;;25.50;32.00;;;;;;5109131;27;20142;-90
2022/05/22 11:02:29;;;;;;;5.63;0.70;;;25.40;31.90;;;;;;5127156;27;20034;-88
2022/05/22 11:04:57;;;;;;;3.05;0.60;;;25.40;32.10;;;;;;5138603;27;20114;-89
2022/05/22 11:07:28;;;;;;;6.30;0.70;;;25.40;31.20;;;;;;5148332;27;20139;-89
2022/05/22 11:09:55;;;;;;;10.65;1.05;;;25.50;31.90;;;;;;5124420;27;20045;-89
2022/05/22 11:12:27;;;;;;;2.83;0.60;;;25.60;31.30;;;;;;5127208;27;20129;-88
2022/05/22 11:15:24;;;;;;;10.85;0.88;;;25.70;31.00;;;;;;5141934;27;20413;-89
2022/05/22 11:18:27;;;;;;;3.40;0.43;;;25.70;29.70;;;;;;5124437;27;20160;-91
2022/05/22 11:20:58;;;;;;;3.40;0.60;;;25.70;30.90;;;;;;5124815;27;20046;-88
2022/05/22 11:23:23;;;;;;;1.75;0.60;;;25.80;31.20;;;;;;5135713;27;20118;-88
2022/05/22 11:25:58;;;;;;;5.65;0.70;;;25.80;29.80;;;;;;5111812;27;20624;-91
2022/05/22 11:28:47;;;;;;;4.97;0.85;;;25.70;29.70;;;;;;5113519;27;20051;-88
2022/05/22 11:31:37;;;;;;;2.72;0.40;;;25.50;29.90;;;;;;5137440;27;20032;-88
2022/05/22 11:34:03;;;;;;;5.70;1.00;;;25.00;29.90;;;;;;5130581;27;20031;-88
2022/05/22 11:37:05;;;;;;;2.10;0.50;;;24.70;30.00;;;;;;5143814;27;20038;-88
2022/05/22 11:39:52;;;;;;;2.97;0.80;;;24.90;30.80;;;;;;5118905;27;20093;-90
2022/05/22 11:42:26;;;;;;;5.38;0.50;;;24.90;29.60;;;;;;5089075;27;20036;-90
2022/05/22 11:45:32;;;;;;;2.33;0.50;;;25.00;30.10;;;;;;5134099;27;20035;-92
2022/05/22 11:48:03;;;;;;;5.45;0.77;;;25.30;30.00;;;;;;5110962;27;20076;-90
2022/05/22 11:50:41;;;;;;;3.60;0.65;;;25.30;30.50;;;;;;5090275;27;20042;-88
2022/05/22 11:53:38;;;;;;;5.90;0.60;;;25.40;30.00;;;;;;5151467;27;20410;-87
2022/05/22 11:56:29;;;;;;;2.45;0.50;;;25.60;29.40;;;;;;5139301;27;20386;-87
2022/05/22 11:59:15;;;;;;;3.08;0.70;;;25.50;28.80;;;;;;5158052;27;20068;-88
2022/05/22 12:02:04;;;;;;;5.35;0.70;;;25.00;29.50;;;;;;5158192;27;20079;-86
2022/05/22 12:05:09;;;;;;;3.17;1.17;;;24.70;30.10;;;;;;5082061;27;20039;-86
2022/05/22 12:08:04;;;;;;;5.03;1.10;;;24.60;31.10;;;;;;5038216;28;20061;-87
2022/05/22 12:10:35;;;;;;;3.30;0.60;;;24.70;30.30;;;;;;5139201;27;20037;-88
2022/05/22 12:13:20;;;;;;;4.18;0.88;;;24.60;30.80;;;;;;5139045;27;20093;-87
2022/05/22 12:15:48;;;;;;;3.08;0.60;;;24.60;30.30;;;;;;5138507;27;20018;-84
2022/05/22 12:18:50;;;;;;;3.20;0.50;;;24.50;30.00;;;;;;5137910;27;20023;-84
2022/05/22 12:21:37;;;;;;;4.22;0.60;;;24.50;29.60;;;;;;5138170;27;20395;-86
2022/05/22 12:24:08;;;;;;;;;;;24.30;29.70;;;;;;5157436;27;20042;-85
2022/05/22 12:26:35;;;;;;;1.60;0.60;;;24.20;29.60;;;;;;5138236;27;19914;-85
2022/05/22 12:29:24;;;;;;;3.25;0.60;;;24.40;30.50;;;;;;5156811;27;20018;-86
2022/05/22 12:31:55;;;;;;;8.18;0.80;;;24.70;31.00;;;;;;5137762;27;20031;-85
2022/05/22 12:34:39;;;;;;;3.53;1.00;;;25.00;29.50;;;;;;5137832;27;20027;-84
2022/05/22 12:37:09;;;;;;;1.65;0.55;;;25.20;29.20;;;;;;5137775;27;20023;-85
2022/05/22 12:39:46;;;;;;;7.68;0.60;;;25.40;29.30;;;;;;5137889;27;20030;-86
2022/05/22 12:42:17;;;;;;;3.42;0.60;;;25.30;29.30;;;;;;5138086;27;20019;-84
2022/05/22 12:44:44;;;;;;;1.73;0.60;;;25.20;29.50;;;;;;5155331;27;20098;-83
2022/05/22 12:47:15;;;;;;;2.00;0.55;;;25.20;29.70;;;;;;5155506;27;20368;-83
2022/05/22 12:49:52;;;;;;;4.88;0.70;;;25.20;29.50;;;;;;5155398;27;20038;-83
2022/05/22 12:52:26;;;;;;;2.17;0.70;;;25.00;29.30;;;;;;5137632;27;20105;-84
2022/05/22 12:55:17;;;;;;;4.32;1.10;;;24.70;29.70;;;;;;5137239;27;20136;-83
2022/05/22 12:58:03;;;;;;;1.83;0.38;;;24.60;30.30;;;;;;5134282;27;20087;-79
2022/05/22 13:00:47;;;;;;;3.88;0.60;;;24.60;30.80;;;;;;5153285;27;20034;-82
2022/05/22 13:03:48;;;;;;;1.45;0.40;;;24.50;30.50;;;;;;5134843;27;20447;-82
2022/05/22 13:06:34;;;;;;;2.20;0.60;;;24.20;31.00;;;;;;5073075;27;20027;-81
2022/05/22 13:09:07;;;;;;;1.83;0.70;;;24.10;31.50;;;;;;5152092;27;20045;-82
2022/05/22 13:11:43;;;;;;;1.50;0.40;;;24.10;31.60;;;;;;5152533;27;20103;-82
2022/05/22 13:14:26;;;;;;;5.32;1.00;;;24.30;31.70;;;;;;5134621;27;20026;-86
2022/05/22 13:16:52;;;;;;;9.57;0.80;;;24.60;31.70;;;;;;5137811;27;20015;-87
2022/05/22 13:19:22;;;;;;;3.42;0.60;;;24.90;30.90;;;;;;5155562;27;20117;-87
2022/05/22 13:21:49;;;;;;;4.82;0.63;;;24.70;30.40;;;;;;5137681;27;20029;-87
2022/05/22 13:24:17;;;;;;;5.22;1.02;;;24.70;31.00;;;;;;5138686;27;20114;-86
2022/05/22 13:26:59;;;;;;;3.08;0.75;;;24.60;31.20;;;;;;5142451;27;20090;-81
2022/05/22 13:29:29;;;;;;;2.63;0.70;;;24.60;31.10;;;;;;5157880;27;20038;-83
2022/05/22 13:32:01;;;;;;;5.28;0.73;;;24.50;31.20;;;;;;5154142;27;20670;-84
2022/05/22 13:34:30;;;;;;;1.60;0.45;;;24.20;30.90;;;;;;5136026;27;20026;-83
2022/05/22 13:37:05;;;;;;;2.55;0.50;;;23.90;31.50;;;;;;5154787;27;20049;-86
2022/05/22 13:39:49;;;;;;;4.53;0.57;;;23.60;32.20;;;;;;5136454;27;20039;-87